CCA2188 ZPPP-ZSQD
Flight info
| Callsign | CCA2188 |
|---|---|
| Flight time | 2h 27m |
| Altitude | 35100 |
| Route | DADOL W144 IGNAK W179 WFX W81 APIMI W275 NSH W281 SUDGO W4 WXI W59 SUNOK W103 WFG |
| Aircraft | A359/H-SDE2E3GHIJ3J4J5LM1ORWXY/LB1D1 |
Departure
| Time | 2026-04-28 12:02 |
|---|---|
| Airport | Kunming Changshui International Airport (ZPPP) |
Arrival
| Time | 2026-04-28 14:30 |
|---|---|
| Airport | Qingdao Jiaodong International Airport (ZSQD) |
| Time | Latitude | Longitude | Altitude | Speed | Heading |
|---|---|---|---|---|---|
| 2026-04-28 11:39 | 25.09826 | 102.93108 | 6918 ft | 0 kts | 218° |
| 2026-04-28 11:55 | 25.09830 | 102.93112 | 6918 ft | 2 kts | 218° |
| 2026-04-28 11:55 | 25.09842 | 102.93123 | 6918 ft | 2 kts | 218° |
| 2026-04-28 11:55 | 25.09854 | 102.93133 | 6918 ft | 2 kts | 218° |
| 2026-04-28 11:55 | 25.09861 | 102.93140 | 6918 ft | 2 kts | 218° |
| 2026-04-28 11:56 | 25.09874 | 102.93147 | 6918 ft | 2 kts | 193° |
| 2026-04-28 11:56 | 25.09889 | 102.93149 | 6918 ft | 2 kts | 171° |
| 2026-04-28 11:56 | 25.09903 | 102.93144 | 6918 ft | 2 kts | 151° |
| 2026-04-28 11:56 | 25.09915 | 102.93134 | 6918 ft | 1 kts | 129° |
| 2026-04-28 11:57 | 25.09918 | 102.93129 | 6918 ft | 0 kts | 125° |
| 2026-04-28 11:58 | 25.09905 | 102.93150 | 6918 ft | 6 kts | 126° |
| 2026-04-28 11:58 | 25.09863 | 102.93209 | 6918 ft | 11 kts | 128° |
| 2026-04-28 11:59 | 25.09810 | 102.93282 | 6918 ft | 12 kts | 129° |
| 2026-04-28 11:59 | 25.09754 | 102.93359 | 6918 ft | 13 kts | 127° |
| 2026-04-28 11:59 | 25.09685 | 102.93422 | 6918 ft | 13 kts | 172° |
| 2026-04-28 11:59 | 25.09598 | 102.93378 | 6918 ft | 14 kts | 218° |
| 2026-04-28 12:00 | 25.09514 | 102.93308 | 6918 ft | 16 kts | 217° |
| 2026-04-28 12:00 | 25.09424 | 102.93229 | 6918 ft | 17 kts | 219° |
| 2026-04-28 12:00 | 25.09326 | 102.93143 | 6918 ft | 18 kts | 218° |
| 2026-04-28 12:00 | 25.09256 | 102.93094 | 6918 ft | 10 kts | 190° |
| 2026-04-28 12:01 | 25.09191 | 102.93134 | 6918 ft | 11 kts | 129° |
| 2026-04-28 12:01 | 25.09162 | 102.93207 | 6918 ft | 10 kts | 81° |
| 2026-04-28 12:01 | 25.09207 | 102.93275 | 6918 ft | 13 kts | 39° |
| 2026-04-28 12:01 | 25.09461 | 102.93496 | 6918 ft | 84 kts | 39° |
| 2026-04-28 12:02 | 25.10109 | 102.94058 | 6918 ft | 150 kts | 38° |
| 2026-04-28 12:02 | 25.11044 | 102.94860 | 7216 ft | 181 kts | 40° |
| 2026-04-28 12:02 | 25.11943 | 102.95841 | 7837 ft | 190 kts | 49° |
| 2026-04-28 12:02 | 25.12813 | 102.97028 | 8467 ft | 205 kts | 54° |
| 2026-04-28 12:03 | 25.13620 | 102.98369 | 8902 ft | 220 kts | 60° |
| 2026-04-28 12:03 | 25.14461 | 102.99847 | 9325 ft | 236 kts | 56° |
| 2026-04-28 12:03 | 25.15431 | 103.01375 | 9758 ft | 252 kts | 56° |
| 2026-04-28 12:03 | 25.16566 | 103.02928 | 10171 ft | 270 kts | 39° |
| 2026-04-28 12:04 | 25.18280 | 103.03812 | 10766 ft | 278 kts | 12° |
| 2026-04-28 12:04 | 25.20219 | 103.04222 | 11336 ft | 289 kts | 9° |
| 2026-04-28 12:04 | 25.22266 | 103.04617 | 11763 ft | 305 kts | 8° |
| 2026-04-28 12:04 | 25.24420 | 103.05022 | 12154 ft | 322 kts | 8° |
| 2026-04-28 12:05 | 25.26677 | 103.05447 | 12526 ft | 338 kts | 7° |
| 2026-04-28 12:05 | 25.29061 | 103.05898 | 12878 ft | 354 kts | 7° |
| 2026-04-28 12:05 | 25.31547 | 103.06370 | 13206 ft | 371 kts | 7° |
| 2026-04-28 12:05 | 25.34152 | 103.06870 | 13504 ft | 387 kts | 7° |
| 2026-04-28 12:06 | 25.36870 | 103.07391 | 13789 ft | 402 kts | 7° |
| 2026-04-28 12:06 | 25.39705 | 103.07936 | 14073 ft | 416 kts | 7° |
| 2026-04-28 12:06 | 25.42579 | 103.08489 | 14502 ft | 424 kts | 7° |
| 2026-04-28 12:06 | 25.45490 | 103.09051 | 15068 ft | 428 kts | 7° |
| 2026-04-28 12:07 | 25.48439 | 103.09624 | 15630 ft | 431 kts | 7° |
| 2026-04-28 12:07 | 25.51393 | 103.10197 | 16186 ft | 434 kts | 7° |
| 2026-04-28 12:07 | 25.54392 | 103.10776 | 16743 ft | 436 kts | 7° |
| 2026-04-28 12:07 | 25.57384 | 103.11356 | 17289 ft | 438 kts | 7° |
| 2026-04-28 12:08 | 25.60398 | 103.11941 | 17797 ft | 441 kts | 7° |
| 2026-04-28 12:08 | 25.63444 | 103.12533 | 18297 ft | 444 kts | 7° |
| 2026-04-28 12:08 | 25.66505 | 103.13123 | 18753 ft | 448 kts | 7° |
| 2026-04-28 12:08 | 25.69551 | 103.13709 | 19235 ft | 450 kts | 7° |
| 2026-04-28 12:09 | 25.72647 | 103.14311 | 19710 ft | 453 kts | 6° |
| 2026-04-28 12:09 | 25.75794 | 103.14922 | 20138 ft | 457 kts | 6° |
| 2026-04-28 12:09 | 25.78913 | 103.15524 | 20609 ft | 459 kts | 6° |
| 2026-04-28 12:09 | 25.82092 | 103.16140 | 21068 ft | 462 kts | 7° |
| 2026-04-28 12:10 | 25.85251 | 103.16753 | 21500 ft | 465 kts | 6° |
| 2026-04-28 12:10 | 25.88493 | 103.17383 | 21919 ft | 468 kts | 7° |
| 2026-04-28 12:10 | 25.91707 | 103.18008 | 22302 ft | 472 kts | 7° |
| 2026-04-28 12:10 | 25.94959 | 103.18640 | 22686 ft | 475 kts | 7° |
| 2026-04-28 12:11 | 25.98220 | 103.19274 | 23105 ft | 478 kts | 7° |
| 2026-04-28 12:11 | 26.01517 | 103.19917 | 23506 ft | 481 kts | 7° |
| 2026-04-28 12:11 | 26.04810 | 103.20562 | 23894 ft | 483 kts | 6° |
| 2026-04-28 12:11 | 26.08144 | 103.21211 | 24299 ft | 486 kts | 6° |
| 2026-04-28 12:12 | 26.11473 | 103.21860 | 24671 ft | 489 kts | 7° |
| 2026-04-28 12:12 | 26.14819 | 103.22511 | 25085 ft | 491 kts | 6° |
| 2026-04-28 12:12 | 26.18185 | 103.23167 | 25472 ft | 493 kts | 7° |
| 2026-04-28 12:12 | 26.21580 | 103.23830 | 25837 ft | 495 kts | 6° |
| 2026-04-28 12:13 | 26.24977 | 103.24493 | 26202 ft | 497 kts | 6° |
| 2026-04-28 12:13 | 26.28430 | 103.25171 | 26579 ft | 499 kts | 6° |
| 2026-04-28 12:13 | 26.31823 | 103.25835 | 26919 ft | 501 kts | 6° |
| 2026-04-28 12:13 | 26.35310 | 103.26520 | 27256 ft | 504 kts | 6° |
| 2026-04-28 12:14 | 26.38731 | 103.27193 | 27526 ft | 507 kts | 6° |
| 2026-04-28 12:14 | 26.42213 | 103.27877 | 27798 ft | 509 kts | 6° |
| 2026-04-28 12:14 | 26.45725 | 103.28610 | 28087 ft | 513 kts | 8° |
| 2026-04-28 12:14 | 26.49203 | 103.29611 | 28342 ft | 518 kts | 13° |
| 2026-04-28 12:15 | 26.52621 | 103.30942 | 28640 ft | 522 kts | 19° |
| 2026-04-28 12:15 | 26.55950 | 103.32587 | 28877 ft | 527 kts | 22° |
| 2026-04-28 12:15 | 26.59239 | 103.34387 | 29128 ft | 529 kts | 24° |
| 2026-04-28 12:15 | 26.62536 | 103.36240 | 29349 ft | 532 kts | 24° |
| 2026-04-28 12:16 | 26.65846 | 103.38110 | 29657 ft | 533 kts | 24° |
| 2026-04-28 12:16 | 26.69157 | 103.39975 | 29989 ft | 532 kts | 23° |
| 2026-04-28 12:16 | 26.72465 | 103.41834 | 30376 ft | 531 kts | 24° |
| 2026-04-28 12:16 | 26.75774 | 103.43687 | 30778 ft | 530 kts | 23° |
| 2026-04-28 12:17 | 26.79066 | 103.45531 | 31171 ft | 529 kts | 23° |
| 2026-04-28 12:17 | 26.82358 | 103.47375 | 31487 ft | 529 kts | 23° |
| 2026-04-28 12:17 | 26.85635 | 103.49209 | 31814 ft | 528 kts | 22° |
| 2026-04-28 12:17 | 26.88914 | 103.51041 | 32207 ft | 527 kts | 23° |
| 2026-04-28 12:18 | 26.92203 | 103.52882 | 32524 ft | 527 kts | 22° |
| 2026-04-28 12:18 | 26.95459 | 103.54710 | 32835 ft | 527 kts | 23° |
| 2026-04-28 12:18 | 26.98765 | 103.56564 | 33077 ft | 528 kts | 22° |
| 2026-04-28 12:18 | 27.02035 | 103.58397 | 33292 ft | 529 kts | 22° |
| 2026-04-28 12:19 | 27.05325 | 103.60249 | 33633 ft | 528 kts | 22° |
| 2026-04-28 12:19 | 27.08629 | 103.62111 | 33940 ft | 528 kts | 21° |
| 2026-04-28 12:19 | 27.11903 | 103.63953 | 34195 ft | 528 kts | 22° |
| 2026-04-28 12:19 | 27.15163 | 103.65781 | 34422 ft | 528 kts | 22° |
| 2026-04-28 12:20 | 27.18473 | 103.67653 | 34606 ft | 529 kts | 22° |
| 2026-04-28 12:20 | 27.21739 | 103.69504 | 34797 ft | 530 kts | 22° |
| 2026-04-28 12:20 | 27.25063 | 103.71390 | 34963 ft | 531 kts | 22° |
| 2026-04-28 12:20 | 27.28356 | 103.73254 | 35102 ft | 532 kts | 22° |
| 2026-04-28 12:21 | 27.31685 | 103.75131 | 35241 ft | 532 kts | 21° |
| 2026-04-28 12:21 | 27.35011 | 103.76901 | 35323 ft | 531 kts | 20° |
| 2026-04-28 12:21 | 27.41705 | 103.80347 | 35330 ft | 530 kts | 19° |
| 2026-04-28 12:22 | 27.48446 | 103.83822 | 35331 ft | 531 kts | 20° |
| 2026-04-28 12:22 | 27.55168 | 103.87338 | 35334 ft | 531 kts | 20° |
| 2026-04-28 12:23 | 27.61874 | 103.90854 | 35341 ft | 534 kts | 20° |
| 2026-04-28 12:23 | 27.68642 | 103.94412 | 35336 ft | 536 kts | 20° |
| 2026-04-28 12:24 | 27.75399 | 103.97966 | 35334 ft | 536 kts | 20° |
| 2026-04-28 12:24 | 27.82134 | 104.01506 | 35320 ft | 535 kts | 20° |
| 2026-04-28 12:25 | 27.88870 | 104.05050 | 35321 ft | 535 kts | 20° |
| 2026-04-28 12:25 | 27.95611 | 104.08611 | 35329 ft | 534 kts | 20° |
| 2026-04-28 12:26 | 28.02383 | 104.12188 | 35323 ft | 536 kts | 20° |
| 2026-04-28 12:26 | 28.09091 | 104.15739 | 35320 ft | 535 kts | 21° |
| 2026-04-28 12:27 | 28.15830 | 104.19305 | 35320 ft | 534 kts | 21° |
| 2026-04-28 12:27 | 28.22568 | 104.22876 | 35315 ft | 535 kts | 21° |
| 2026-04-28 12:28 | 28.29353 | 104.26391 | 35319 ft | 533 kts | 17° |
| 2026-04-28 12:28 | 28.36348 | 104.28944 | 35307 ft | 526 kts | 9° |
| 2026-04-28 12:29 | 28.47109 | 104.30499 | 35299 ft | 519 kts | 356° |
| 2026-04-28 12:30 | 28.54302 | 104.30241 | 35293 ft | 516 kts | 352° |
| 2026-04-28 12:30 | 28.61521 | 104.29801 | 35293 ft | 517 kts | 352° |
| 2026-04-28 12:31 | 28.68697 | 104.29390 | 35293 ft | 517 kts | 352° |
| 2026-04-28 12:31 | 28.75858 | 104.28993 | 35300 ft | 518 kts | 353° |
| 2026-04-28 12:32 | 28.83076 | 104.28598 | 35297 ft | 518 kts | 353° |
| 2026-04-28 12:32 | 28.90309 | 104.28203 | 35295 ft | 519 kts | 353° |
| 2026-04-28 12:33 | 28.97521 | 104.27808 | 35287 ft | 520 kts | 353° |
| 2026-04-28 12:33 | 29.04722 | 104.27416 | 35276 ft | 519 kts | 353° |
| 2026-04-28 12:34 | 29.11960 | 104.27022 | 35285 ft | 520 kts | 353° |
| 2026-04-28 12:34 | 29.19207 | 104.26627 | 35282 ft | 521 kts | 353° |
| 2026-04-28 12:35 | 29.26476 | 104.26522 | 35280 ft | 524 kts | 358° |
| 2026-04-28 12:35 | 29.33806 | 104.27264 | 35284 ft | 529 kts | 4° |
| 2026-04-28 12:36 | 29.41093 | 104.28485 | 35276 ft | 530 kts | 5° |
| 2026-04-28 12:36 | 29.48368 | 104.29743 | 35275 ft | 530 kts | 5° |
| 2026-04-28 12:37 | 29.55679 | 104.31000 | 35283 ft | 531 kts | 5° |
| 2026-04-28 12:37 | 29.63009 | 104.32251 | 35275 ft | 531 kts | 5° |
| 2026-04-28 12:38 | 29.70311 | 104.33495 | 35277 ft | 531 kts | 5° |
| 2026-04-28 12:38 | 29.77623 | 104.34744 | 35269 ft | 533 kts | 5° |
| 2026-04-28 12:39 | 29.84967 | 104.36002 | 35270 ft | 533 kts | 5° |
| 2026-04-28 12:39 | 29.92307 | 104.37262 | 35271 ft | 533 kts | 5° |
| 2026-04-28 12:40 | 29.99650 | 104.38524 | 35268 ft | 533 kts | 5° |
| 2026-04-28 12:40 | 30.06985 | 104.39789 | 35260 ft | 533 kts | 5° |
| 2026-04-28 12:41 | 30.14333 | 104.41053 | 35264 ft | 534 kts | 5° |
| 2026-04-28 12:41 | 30.21680 | 104.42324 | 35266 ft | 534 kts | 5° |
| 2026-04-28 12:42 | 30.28994 | 104.43597 | 35267 ft | 534 kts | 5° |
| 2026-04-28 12:42 | 30.36373 | 104.44888 | 35264 ft | 535 kts | 5° |
| 2026-04-28 12:43 | 30.43752 | 104.46185 | 35264 ft | 535 kts | 5° |
| 2026-04-28 12:43 | 30.51112 | 104.47611 | 35248 ft | 539 kts | 11° |
| 2026-04-28 12:44 | 30.58055 | 104.50957 | 35261 ft | 547 kts | 29° |
| 2026-04-28 12:44 | 30.63870 | 104.56594 | 35250 ft | 550 kts | 48° |
| 2026-04-28 12:45 | 30.68113 | 104.63955 | 35265 ft | 550 kts | 60° |
| 2026-04-28 12:45 | 30.71786 | 104.71733 | 35254 ft | 550 kts | 62° |
| 2026-04-28 12:46 | 30.75469 | 104.79507 | 35245 ft | 550 kts | 61° |
| 2026-04-28 12:46 | 30.79186 | 104.87222 | 35250 ft | 550 kts | 61° |
| 2026-04-28 12:47 | 30.82930 | 104.94965 | 35244 ft | 549 kts | 61° |
| 2026-04-28 12:47 | 30.86655 | 105.02676 | 35247 ft | 549 kts | 61° |
| 2026-04-28 12:48 | 30.90384 | 105.10405 | 35247 ft | 550 kts | 61° |
| 2026-04-28 12:48 | 30.94128 | 105.18191 | 35243 ft | 550 kts | 61° |
| 2026-04-28 12:49 | 30.97852 | 105.25944 | 35244 ft | 551 kts | 61° |
| 2026-04-28 12:49 | 31.01581 | 105.33731 | 35244 ft | 551 kts | 61° |
| 2026-04-28 12:50 | 31.05291 | 105.41490 | 35242 ft | 552 kts | 61° |
| 2026-04-28 12:50 | 31.09023 | 105.49346 | 35248 ft | 552 kts | 62° |
| 2026-04-28 12:51 | 31.12745 | 105.57169 | 35243 ft | 552 kts | 61° |
| 2026-04-28 12:51 | 31.16454 | 105.64963 | 35246 ft | 554 kts | 61° |
| 2026-04-28 12:52 | 31.20154 | 105.72816 | 35242 ft | 554 kts | 62° |
| 2026-04-28 12:52 | 31.23861 | 105.80722 | 35245 ft | 553 kts | 63° |
| 2026-04-28 12:53 | 31.27538 | 105.88570 | 35237 ft | 554 kts | 62° |
| 2026-04-28 12:53 | 31.31228 | 105.96451 | 35237 ft | 555 kts | 63° |
| 2026-04-28 12:54 | 31.35243 | 106.04195 | 35241 ft | 556 kts | 56° |
| 2026-04-28 12:54 | 31.39914 | 106.11335 | 35243 ft | 557 kts | 49° |
| 2026-04-28 12:55 | 31.45172 | 106.17982 | 35242 ft | 558 kts | 46° |
| 2026-04-28 12:55 | 31.50510 | 106.24588 | 35243 ft | 559 kts | 46° |
| 2026-04-28 12:56 | 31.55800 | 106.31225 | 35242 ft | 559 kts | 46° |
| 2026-04-28 12:56 | 31.61096 | 106.37897 | 35241 ft | 559 kts | 46° |
| 2026-04-28 12:57 | 31.66443 | 106.44575 | 35238 ft | 560 kts | 46° |
| 2026-04-28 12:57 | 31.71775 | 106.51171 | 35238 ft | 560 kts | 46° |
| 2026-04-28 12:58 | 31.77130 | 106.57816 | 35238 ft | 560 kts | 46° |
| 2026-04-28 12:58 | 31.82471 | 106.64465 | 35237 ft | 560 kts | 46° |
| 2026-04-28 12:59 | 31.87781 | 106.71121 | 35228 ft | 560 kts | 47° |
| 2026-04-28 12:59 | 31.93083 | 106.77774 | 35231 ft | 560 kts | 47° |
| 2026-04-28 13:00 | 31.98413 | 106.84460 | 35240 ft | 562 kts | 47° |
| 2026-04-28 13:00 | 32.03759 | 106.91163 | 35241 ft | 562 kts | 47° |
| 2026-04-28 13:01 | 32.09124 | 106.97897 | 35251 ft | 562 kts | 46° |
| 2026-04-28 13:01 | 32.14486 | 107.04549 | 35252 ft | 563 kts | 46° |
| 2026-04-28 13:02 | 32.19832 | 107.11325 | 35253 ft | 563 kts | 49° |
| 2026-04-28 13:02 | 32.24520 | 107.18679 | 35252 ft | 564 kts | 58° |
| 2026-04-28 13:03 | 32.28354 | 107.26759 | 35262 ft | 563 kts | 66° |
| 2026-04-28 13:03 | 32.31266 | 107.35278 | 35262 ft | 562 kts | 72° |
| 2026-04-28 13:04 | 32.33874 | 107.43960 | 35266 ft | 564 kts | 72° |
| 2026-04-28 13:04 | 32.36495 | 107.52638 | 35268 ft | 564 kts | 72° |
| 2026-04-28 13:05 | 32.39151 | 107.61349 | 35260 ft | 564 kts | 72° |
| 2026-04-28 13:05 | 32.41829 | 107.70136 | 35258 ft | 565 kts | 72° |
| 2026-04-28 13:06 | 32.44468 | 107.78842 | 35253 ft | 565 kts | 72° |
| 2026-04-28 13:06 | 32.47121 | 107.87608 | 35263 ft | 566 kts | 72° |
| 2026-04-28 13:07 | 32.50528 | 107.95977 | 35267 ft | 568 kts | 55° |
| 2026-04-28 13:07 | 32.53011 | 107.99570 | 35274 ft | 567 kts | 44° |
| 2026-04-28 13:07 | 32.55972 | 108.02651 | 35279 ft | 565 kts | 34° |
| 2026-04-28 13:07 | 32.59280 | 108.05090 | 35274 ft | 560 kts | 23° |
| 2026-04-28 13:08 | 32.62851 | 108.06856 | 35270 ft | 555 kts | 14° |
| 2026-04-28 13:08 | 32.70218 | 108.09420 | 35266 ft | 554 kts | 11° |
| 2026-04-28 13:09 | 32.77689 | 108.11923 | 35264 ft | 556 kts | 12° |
| 2026-04-28 13:09 | 32.85094 | 108.14501 | 35269 ft | 556 kts | 12° |
| 2026-04-28 13:10 | 32.92538 | 108.17136 | 35268 ft | 558 kts | 12° |
| 2026-04-28 13:10 | 32.99993 | 108.19789 | 35269 ft | 559 kts | 12° |
| 2026-04-28 13:11 | 33.07429 | 108.22437 | 35277 ft | 559 kts | 12° |
| 2026-04-28 13:11 | 33.14872 | 108.25088 | 35296 ft | 560 kts | 12° |
| 2026-04-28 13:12 | 33.22317 | 108.27898 | 35279 ft | 563 kts | 19° |
| 2026-04-28 13:12 | 33.25721 | 108.30160 | 35309 ft | 571 kts | 33° |
| 2026-04-28 13:12 | 33.28714 | 108.33324 | 35316 ft | 575 kts | 47° |
| 2026-04-28 13:12 | 33.31047 | 108.37189 | 35320 ft | 576 kts | 62° |
| 2026-04-28 13:13 | 33.32615 | 108.41574 | 35319 ft | 573 kts | 76° |
| 2026-04-28 13:13 | 33.33354 | 108.46191 | 35342 ft | 567 kts | 88° |
| 2026-04-28 13:13 | 33.33699 | 108.50896 | 35319 ft | 568 kts | 89° |
| 2026-04-28 13:14 | 33.34277 | 108.60259 | 35325 ft | 570 kts | 89° |
| 2026-04-28 13:14 | 33.34936 | 108.69657 | 35315 ft | 570 kts | 89° |
| 2026-04-28 13:15 | 33.35659 | 108.79089 | 35307 ft | 570 kts | 89° |
| 2026-04-28 13:15 | 33.36388 | 108.88522 | 35303 ft | 571 kts | 89° |
| 2026-04-28 13:16 | 33.37110 | 108.97928 | 35300 ft | 572 kts | 89° |
| 2026-04-28 13:16 | 33.37832 | 109.07375 | 35301 ft | 571 kts | 89° |
| 2026-04-28 13:17 | 33.38538 | 109.16801 | 35306 ft | 571 kts | 89° |
| 2026-04-28 13:17 | 33.39238 | 109.26218 | 35315 ft | 571 kts | 89° |
| 2026-04-28 13:18 | 33.39932 | 109.35664 | 35312 ft | 571 kts | 89° |
| 2026-04-28 13:18 | 33.40617 | 109.45089 | 35305 ft | 572 kts | 89° |
| 2026-04-28 13:19 | 33.41299 | 109.54540 | 35296 ft | 571 kts | 88° |
| 2026-04-28 13:19 | 33.42115 | 109.64007 | 35289 ft | 572 kts | 87° |
| 2026-04-28 13:20 | 33.43066 | 109.73380 | 35292 ft | 572 kts | 87° |
| 2026-04-28 13:20 | 33.44013 | 109.82842 | 35287 ft | 571 kts | 88° |
| 2026-04-28 13:21 | 33.44921 | 109.92261 | 35288 ft | 572 kts | 87° |
| 2026-04-28 13:21 | 33.45821 | 110.01695 | 35289 ft | 573 kts | 87° |
| 2026-04-28 13:22 | 33.46720 | 110.11173 | 35287 ft | 573 kts | 87° |
| 2026-04-28 13:22 | 33.47604 | 110.20605 | 35289 ft | 572 kts | 88° |
| 2026-04-28 13:23 | 33.48484 | 110.30079 | 35289 ft | 574 kts | 88° |
| 2026-04-28 13:23 | 33.49618 | 110.39504 | 35266 ft | 578 kts | 77° |
| 2026-04-28 13:23 | 33.50995 | 110.44047 | 35273 ft | 582 kts | 65° |
| 2026-04-28 13:24 | 33.53047 | 110.48201 | 35276 ft | 582 kts | 52° |
| 2026-04-28 13:24 | 33.55672 | 110.51794 | 35289 ft | 579 kts | 41° |
| 2026-04-28 13:24 | 33.58817 | 110.54768 | 35286 ft | 574 kts | 28° |
| 2026-04-28 13:25 | 33.65912 | 110.59054 | 35279 ft | 570 kts | 19° |
| 2026-04-28 13:25 | 33.73143 | 110.62987 | 35290 ft | 570 kts | 19° |
| 2026-04-28 13:26 | 33.80305 | 110.67018 | 35294 ft | 571 kts | 21° |
| 2026-04-28 13:26 | 33.87446 | 110.71139 | 35296 ft | 571 kts | 21° |
| 2026-04-28 13:27 | 33.94635 | 110.75292 | 35293 ft | 571 kts | 21° |
| 2026-04-28 13:27 | 34.01772 | 110.79412 | 35295 ft | 572 kts | 20° |
| 2026-04-28 13:28 | 34.08950 | 110.83559 | 35290 ft | 573 kts | 21° |
| 2026-04-28 13:28 | 34.16148 | 110.87717 | 35283 ft | 573 kts | 21° |
| 2026-04-28 13:29 | 34.23312 | 110.91866 | 35288 ft | 573 kts | 21° |
| 2026-04-28 13:29 | 34.30513 | 110.96049 | 35285 ft | 574 kts | 20° |
| 2026-04-28 13:30 | 34.37523 | 111.00732 | 35287 ft | 582 kts | 30° |
| 2026-04-28 13:30 | 34.43783 | 111.07000 | 35283 ft | 588 kts | 43° |
| 2026-04-28 13:31 | 34.51133 | 111.18937 | 35289 ft | 593 kts | 58° |
| 2026-04-28 13:31 | 34.55184 | 111.27157 | 35292 ft | 593 kts | 59° |
| 2026-04-28 13:32 | 34.59421 | 111.35714 | 35287 ft | 594 kts | 58° |
| 2026-04-28 13:32 | 34.63708 | 111.44256 | 35286 ft | 594 kts | 58° |
| 2026-04-28 13:33 | 34.68024 | 111.52831 | 35287 ft | 594 kts | 58° |
| 2026-04-28 13:33 | 34.72300 | 111.61361 | 35290 ft | 594 kts | 58° |
| 2026-04-28 13:34 | 34.76590 | 111.69939 | 35288 ft | 595 kts | 58° |
| 2026-04-28 13:34 | 34.80871 | 111.78561 | 35294 ft | 596 kts | 58° |
| 2026-04-28 13:35 | 34.85138 | 111.87135 | 35295 ft | 596 kts | 59° |
| 2026-04-28 13:35 | 34.89439 | 111.95772 | 35299 ft | 596 kts | 58° |
| 2026-04-28 13:36 | 34.93763 | 112.04363 | 35301 ft | 597 kts | 58° |
| 2026-04-28 13:36 | 34.98105 | 112.13004 | 35303 ft | 599 kts | 58° |
| 2026-04-28 13:37 | 35.02438 | 112.21652 | 35304 ft | 600 kts | 58° |
| 2026-04-28 13:37 | 35.06766 | 112.30318 | 35310 ft | 600 kts | 58° |
| 2026-04-28 13:38 | 35.11103 | 112.39023 | 35309 ft | 601 kts | 57° |
| 2026-04-28 13:38 | 35.15437 | 112.47687 | 35316 ft | 602 kts | 58° |
| 2026-04-28 13:39 | 35.19769 | 112.56418 | 35318 ft | 602 kts | 57° |
| 2026-04-28 13:39 | 35.24159 | 112.65193 | 35318 ft | 603 kts | 58° |
| 2026-04-28 13:40 | 35.28528 | 112.73899 | 35317 ft | 604 kts | 58° |
| 2026-04-28 13:40 | 35.32908 | 112.82662 | 35322 ft | 605 kts | 57° |
| 2026-04-28 13:41 | 35.37267 | 112.91399 | 35323 ft | 606 kts | 58° |
| 2026-04-28 13:41 | 35.41651 | 113.00216 | 35331 ft | 606 kts | 58° |
| 2026-04-28 13:42 | 35.46015 | 113.09005 | 35337 ft | 607 kts | 57° |
| 2026-04-28 13:42 | 35.50388 | 113.17836 | 35333 ft | 607 kts | 57° |
| 2026-04-28 13:43 | 35.54766 | 113.26698 | 35327 ft | 608 kts | 58° |
| 2026-04-28 13:43 | 35.59122 | 113.35548 | 35324 ft | 608 kts | 58° |
| 2026-04-28 13:44 | 35.63512 | 113.44414 | 35324 ft | 608 kts | 56° |
| 2026-04-28 13:44 | 35.67986 | 113.53217 | 35330 ft | 609 kts | 56° |
| 2026-04-28 13:45 | 35.72457 | 113.62035 | 35335 ft | 610 kts | 56° |
| 2026-04-28 13:45 | 35.76915 | 113.70888 | 35346 ft | 610 kts | 57° |
| 2026-04-28 13:46 | 35.81351 | 113.79748 | 35352 ft | 611 kts | 57° |
| 2026-04-28 13:46 | 35.85818 | 113.88682 | 35358 ft | 612 kts | 57° |
| 2026-04-28 13:47 | 35.90245 | 113.97549 | 35361 ft | 612 kts | 56° |
| 2026-04-28 13:47 | 35.94711 | 114.06504 | 35358 ft | 613 kts | 57° |
| 2026-04-28 13:48 | 35.99157 | 114.15447 | 35353 ft | 613 kts | 57° |
| 2026-04-28 13:48 | 36.03595 | 114.24403 | 35352 ft | 614 kts | 56° |
| 2026-04-28 13:49 | 36.08034 | 114.33383 | 35347 ft | 614 kts | 57° |
| 2026-04-28 13:49 | 36.12469 | 114.42356 | 35341 ft | 614 kts | 56° |
| 2026-04-28 13:50 | 36.16955 | 114.51410 | 35335 ft | 615 kts | 56° |
| 2026-04-28 13:50 | 36.21393 | 114.60442 | 35335 ft | 616 kts | 56° |
| 2026-04-28 13:51 | 36.25809 | 114.69497 | 35327 ft | 616 kts | 57° |
| 2026-04-28 13:51 | 36.30181 | 114.78567 | 35324 ft | 616 kts | 58° |
| 2026-04-28 13:52 | 36.34307 | 114.87811 | 35323 ft | 617 kts | 63° |
| 2026-04-28 13:52 | 36.37589 | 114.97619 | 35322 ft | 618 kts | 72° |
| 2026-04-28 13:53 | 36.39945 | 115.07870 | 35320 ft | 618 kts | 77° |
| 2026-04-28 13:53 | 36.42112 | 115.18134 | 35316 ft | 620 kts | 73° |
| 2026-04-28 13:54 | 36.45061 | 115.28125 | 35321 ft | 620 kts | 65° |
| 2026-04-28 13:54 | 36.48585 | 115.37894 | 35320 ft | 619 kts | 64° |
| 2026-04-28 13:55 | 36.52097 | 115.47587 | 35322 ft | 620 kts | 65° |
| 2026-04-28 13:55 | 36.55582 | 115.57403 | 35322 ft | 621 kts | 65° |
| 2026-04-28 13:56 | 36.59035 | 115.67206 | 35310 ft | 620 kts | 65° |
| 2026-04-28 13:56 | 36.62472 | 115.77016 | 35318 ft | 622 kts | 66° |
| 2026-04-28 13:57 | 36.65923 | 115.86867 | 35318 ft | 622 kts | 65° |
| 2026-04-28 13:57 | 36.69362 | 115.96702 | 35319 ft | 622 kts | 65° |
| 2026-04-28 13:58 | 36.72813 | 116.06596 | 35328 ft | 623 kts | 65° |
| 2026-04-28 13:58 | 36.76216 | 116.16491 | 35332 ft | 624 kts | 67° |
| 2026-04-28 13:59 | 36.78923 | 116.26734 | 35328 ft | 624 kts | 76° |
| 2026-04-28 13:59 | 36.80508 | 116.37254 | 35328 ft | 622 kts | 85° |
| 2026-04-28 14:00 | 36.81050 | 116.47961 | 35331 ft | 619 kts | 91° |
| 2026-04-28 14:00 | 36.81311 | 116.58691 | 35330 ft | 620 kts | 91° |
| 2026-04-28 14:01 | 36.81610 | 116.69380 | 35329 ft | 620 kts | 91° |
| 2026-04-28 14:01 | 36.81950 | 116.80107 | 35332 ft | 621 kts | 91° |
| 2026-04-28 14:02 | 36.82290 | 116.90881 | 35332 ft | 620 kts | 92° |
| 2026-04-28 14:02 | 36.82613 | 117.01595 | 35329 ft | 621 kts | 91° |
| 2026-04-28 14:03 | 36.82930 | 117.12319 | 35338 ft | 621 kts | 91° |
| 2026-04-28 14:03 | 36.82966 | 117.23032 | 35333 ft | 617 kts | 97° |
| 2026-04-28 14:04 | 36.82142 | 117.33558 | 35332 ft | 614 kts | 102° |
| 2026-04-28 14:04 | 36.81082 | 117.44095 | 35329 ft | 614 kts | 102° |
| 2026-04-28 14:05 | 36.80035 | 117.54631 | 35334 ft | 613 kts | 102° |
| 2026-04-28 14:05 | 36.79004 | 117.65153 | 35328 ft | 614 kts | 102° |
| 2026-04-28 14:06 | 36.77985 | 117.75700 | 35325 ft | 614 kts | 103° |
| 2026-04-28 14:06 | 36.76958 | 117.86214 | 35329 ft | 613 kts | 102° |
| 2026-04-28 14:07 | 36.75906 | 117.96743 | 35328 ft | 614 kts | 102° |
| 2026-04-28 14:07 | 36.74856 | 118.07284 | 35329 ft | 614 kts | 102° |
| 2026-04-28 14:08 | 36.73788 | 118.17827 | 35334 ft | 615 kts | 102° |
| 2026-04-28 14:08 | 36.72747 | 118.28333 | 35328 ft | 615 kts | 101° |
| 2026-04-28 14:09 | 36.71759 | 118.38903 | 35334 ft | 614 kts | 101° |
| 2026-04-28 14:09 | 36.70774 | 118.49382 | 35328 ft | 615 kts | 102° |
| 2026-04-28 14:10 | 36.69761 | 118.59959 | 35330 ft | 615 kts | 101° |
| 2026-04-28 14:10 | 36.68747 | 118.70475 | 35325 ft | 615 kts | 102° |
| 2026-04-28 14:11 | 36.67731 | 118.80980 | 35303 ft | 606 kts | 102° |
| 2026-04-28 14:11 | 36.67224 | 118.86188 | 34709 ft | 603 kts | 102° |
| 2026-04-28 14:11 | 36.66712 | 118.91383 | 33729 ft | 604 kts | 102° |
| 2026-04-28 14:12 | 36.66198 | 118.96506 | 32815 ft | 606 kts | 101° |
| 2026-04-28 14:12 | 36.65676 | 119.01743 | 31906 ft | 607 kts | 102° |
| 2026-04-28 14:12 | 36.65158 | 119.06918 | 31021 ft | 607 kts | 103° |
| 2026-04-28 14:12 | 36.64369 | 119.12055 | 30115 ft | 599 kts | 111° |
| 2026-04-28 14:13 | 36.63028 | 119.16859 | 29248 ft | 589 kts | 119° |
| 2026-04-28 14:13 | 36.61376 | 119.21505 | 28418 ft | 586 kts | 121° |
| 2026-04-28 14:13 | 36.59668 | 119.26035 | 27663 ft | 581 kts | 122° |
| 2026-04-28 14:13 | 36.57964 | 119.30534 | 26817 ft | 561 kts | 121° |
| 2026-04-28 14:14 | 36.56365 | 119.34801 | 26007 ft | 540 kts | 121° |
| 2026-04-28 14:14 | 36.54835 | 119.38934 | 25196 ft | 524 kts | 121° |
| 2026-04-28 14:14 | 36.53344 | 119.42979 | 24366 ft | 511 kts | 121° |
| 2026-04-28 14:14 | 36.51877 | 119.46960 | 23574 ft | 498 kts | 120° |
| 2026-04-28 14:15 | 36.50475 | 119.50782 | 22800 ft | 485 kts | 120° |
| 2026-04-28 14:15 | 36.49085 | 119.54558 | 22024 ft | 474 kts | 120° |
| 2026-04-28 14:15 | 36.47733 | 119.58214 | 21253 ft | 464 kts | 119° |
| 2026-04-28 14:15 | 36.46405 | 119.61809 | 20459 ft | 455 kts | 118° |
| 2026-04-28 14:16 | 36.45098 | 119.65336 | 19687 ft | 447 kts | 118° |
| 2026-04-28 14:16 | 36.43821 | 119.68810 | 18858 ft | 438 kts | 117° |
| 2026-04-28 14:16 | 36.42573 | 119.72198 | 18066 ft | 431 kts | 116° |
| 2026-04-28 14:16 | 36.41343 | 119.75539 | 17293 ft | 424 kts | 116° |
| 2026-04-28 14:17 | 36.40131 | 119.78828 | 16500 ft | 416 kts | 115° |
| 2026-04-28 14:17 | 36.38953 | 119.82024 | 15721 ft | 409 kts | 114° |
| 2026-04-28 14:17 | 36.37776 | 119.85216 | 14901 ft | 401 kts | 114° |
| 2026-04-28 14:17 | 36.36646 | 119.88277 | 14101 ft | 393 kts | 113° |
| 2026-04-28 14:18 | 36.35516 | 119.91337 | 13258 ft | 385 kts | 112° |
| 2026-04-28 14:18 | 36.34405 | 119.94347 | 12404 ft | 390 kts | 112° |
| 2026-04-28 14:18 | 36.33206 | 119.97411 | 11539 ft | 403 kts | 120° |
| 2026-04-28 14:18 | 36.31311 | 119.99914 | 11006 ft | 402 kts | 146° |
| 2026-04-28 14:19 | 36.28770 | 120.01222 | 10783 ft | 386 kts | 171° |
| 2026-04-28 14:19 | 36.26245 | 120.01633 | 10798 ft | 347 kts | 175° |
| 2026-04-28 14:19 | 36.23952 | 120.02024 | 10796 ft | 316 kts | 173° |
| 2026-04-28 14:19 | 36.21884 | 120.02520 | 10770 ft | 292 kts | 169° |
| 2026-04-28 14:20 | 36.19948 | 120.03109 | 10796 ft | 280 kts | 167° |
| 2026-04-28 14:20 | 36.18093 | 120.03756 | 10801 ft | 278 kts | 166° |
| 2026-04-28 14:20 | 36.16226 | 120.04450 | 10462 ft | 282 kts | 165° |
| 2026-04-28 14:20 | 36.14379 | 120.05160 | 10048 ft | 277 kts | 164° |
| 2026-04-28 14:21 | 36.12543 | 120.05879 | 9644 ft | 272 kts | 163° |
| 2026-04-28 14:21 | 36.10761 | 120.06580 | 9223 ft | 270 kts | 163° |
| 2026-04-28 14:21 | 36.08965 | 120.07287 | 8789 ft | 268 kts | 163° |
| 2026-04-28 14:21 | 36.07201 | 120.07980 | 8361 ft | 267 kts | 163° |
| 2026-04-28 14:22 | 36.05456 | 120.08701 | 7919 ft | 266 kts | 155° |
| 2026-04-28 14:22 | 36.04045 | 120.10143 | 7420 ft | 263 kts | 115° |
| 2026-04-28 14:22 | 36.03635 | 120.12231 | 6970 ft | 248 kts | 76° |
| 2026-04-28 14:22 | 36.04265 | 120.14081 | 6540 ft | 231 kts | 49° |
| 2026-04-28 14:23 | 36.05160 | 120.15720 | 6111 ft | 230 kts | 54° |
| 2026-04-28 14:23 | 36.05905 | 120.17469 | 5681 ft | 228 kts | 56° |
| 2026-04-28 14:23 | 36.06885 | 120.18899 | 5189 ft | 216 kts | 21° |
| 2026-04-28 14:23 | 36.08306 | 120.19110 | 4748 ft | 208 kts | 342° |
| 2026-04-28 14:24 | 36.09622 | 120.18420 | 4350 ft | 205 kts | 336° |
| 2026-04-28 14:24 | 36.10876 | 120.17680 | 4034 ft | 198 kts | 336° |
| 2026-04-28 14:24 | 36.12124 | 120.17017 | 3602 ft | 193 kts | 340° |
| 2026-04-28 14:24 | 36.13394 | 120.16466 | 3200 ft | 195 kts | 343° |
| 2026-04-28 14:25 | 36.14675 | 120.15954 | 2982 ft | 188 kts | 343° |
| 2026-04-28 14:25 | 36.15869 | 120.15484 | 2959 ft | 171 kts | 344° |
| 2026-04-28 14:25 | 36.16994 | 120.15042 | 2970 ft | 168 kts | 345° |
| 2026-04-28 14:25 | 36.18102 | 120.14607 | 2971 ft | 166 kts | 345° |
| 2026-04-28 14:26 | 36.19201 | 120.14175 | 2971 ft | 165 kts | 344° |
| 2026-04-28 14:26 | 36.20306 | 120.13747 | 2866 ft | 167 kts | 344° |
| 2026-04-28 14:26 | 36.21426 | 120.13313 | 2650 ft | 168 kts | 344° |
| 2026-04-28 14:26 | 36.22545 | 120.12875 | 2420 ft | 169 kts | 344° |
| 2026-04-28 14:27 | 36.23667 | 120.12436 | 2192 ft | 170 kts | 343° |
| 2026-04-28 14:27 | 36.24788 | 120.11996 | 1968 ft | 166 kts | 343° |
| 2026-04-28 14:27 | 36.25864 | 120.11571 | 1738 ft | 160 kts | 343° |
| 2026-04-28 14:27 | 36.26928 | 120.11153 | 1529 ft | 160 kts | 343° |
| 2026-04-28 14:28 | 36.27992 | 120.10734 | 1321 ft | 160 kts | 343° |
| 2026-04-28 14:28 | 36.29055 | 120.10317 | 1113 ft | 160 kts | 343° |
| 2026-04-28 14:28 | 36.30128 | 120.09901 | 889 ft | 157 kts | 343° |
| 2026-04-28 14:28 | 36.31129 | 120.09508 | 673 ft | 144 kts | 343° |
| 2026-04-28 14:29 | 36.32043 | 120.09149 | 490 ft | 134 kts | 343° |
| 2026-04-28 14:29 | 36.32934 | 120.08799 | 322 ft | 134 kts | 342° |
| 2026-04-28 14:29 | 36.33827 | 120.08453 | 158 ft | 135 kts | 342° |
| 2026-04-28 14:29 | 36.34710 | 120.08089 | 65 ft | 131 kts | 340° |
| 2026-04-28 14:30 | 36.35433 | 120.07819 | 49 ft | 80 kts | 341° |
| 2026-04-28 14:30 | 36.35793 | 120.07685 | 44 ft | 21 kts | 2° |
| 2026-04-28 14:30 | 36.35901 | 120.07703 | 43 ft | 11 kts | 5° |
| 2026-04-28 14:30 | 36.35987 | 120.07716 | 41 ft | 7 kts | 19° |
| 2026-04-28 14:31 | 36.36023 | 120.07751 | 42 ft | 8 kts | 44° |
| 2026-04-28 14:31 | 36.36067 | 120.07858 | 42 ft | 20 kts | 69° |
| 2026-04-28 14:31 | 36.36111 | 120.08021 | 41 ft | 19 kts | 71° |
| 2026-04-28 14:31 | 36.36185 | 120.08107 | 42 ft | 14 kts | 16° |
| 2026-04-28 14:32 | 36.36209 | 120.08115 | 41 ft | 0 kts | 14° |